createdAt,value
2024-01-21T00:00:00.367Z,0.090
2024-01-21T00:01:00.367Z,0.090
2024-01-21T00:02:00.275Z,0.090
2024-01-21T00:03:00.345Z,0.090
2024-01-21T00:04:00.426Z,0.045
2024-01-21T00:05:00.299Z,0.045
2024-01-21T00:06:00.471Z,0.045
2024-01-21T00:07:00.288Z,0.045
2024-01-21T00:08:00.287Z,0.045
2024-01-21T00:09:00.278Z,0.045
2024-01-21T00:10:00.330Z,0.135
2024-01-21T00:11:00.295Z,0.045
2024-01-21T00:12:00.329Z,0.045
2024-01-21T00:13:00.276Z,0.045
2024-01-21T00:14:00.278Z,0.045
2024-01-21T00:15:00.281Z,0.045
2024-01-21T00:16:00.331Z,0.045
2024-01-21T00:17:00.285Z,0.045
2024-01-21T00:18:00.439Z,0.045
2024-01-21T00:19:00.399Z,0.090
2024-01-21T00:20:00.278Z,0.045
2024-01-21T00:21:00.252Z,0.045
2024-01-21T00:22:00.312Z,0.045
2024-01-21T00:23:00.267Z,0.090
2024-01-21T00:24:00.282Z,0.045
2024-01-21T00:25:00.291Z,0.045
2024-01-21T00:26:00.264Z,0.045
2024-01-21T00:27:00.311Z,0.045
2024-01-21T00:28:00.533Z,0.045
2024-01-21T00:29:00.354Z,0.045
2024-01-21T00:30:00.337Z,0.045
2024-01-21T00:31:00.327Z,0.045
2024-01-21T00:32:00.349Z,0.045
2024-01-21T00:33:00.394Z,0.090
2024-01-21T00:34:00.402Z,0.090
2024-01-21T00:35:00.317Z,0.045
2024-01-21T00:36:00.257Z,0.045
2024-01-21T00:37:00.283Z,0.135
2024-01-21T00:38:00.257Z,0.090
2024-01-21T00:39:00.272Z,0.045
2024-01-21T00:40:00.343Z,0.045
2024-01-21T00:41:00.272Z,0.045
2024-01-21T00:42:07.549Z,0.045
2024-01-21T00:43:00.346Z,0.045
2024-01-21T00:44:00.340Z,0.045
2024-01-21T00:45:00.278Z,0.045
2024-01-21T00:46:00.468Z,0.090
2024-01-21T00:47:00.299Z,0.090
2024-01-21T00:48:00.351Z,0.090
2024-01-21T00:49:00.453Z,0.090
2024-01-21T00:50:00.381Z,0.090
2024-01-21T00:51:00.291Z,0.090
2024-01-21T00:52:00.375Z,0.090
2024-01-21T00:53:00.268Z,0.090
2024-01-21T00:54:00.315Z,0.090
2024-01-21T00:55:00.260Z,0.090
2024-01-21T00:56:00.267Z,0.090
2024-01-21T00:57:00.268Z,0.090
2024-01-21T00:58:00.284Z,0.090
2024-01-21T00:59:00.338Z,0.090
2024-01-21T01:00:00.344Z,0.090
2024-01-21T01:01:00.397Z,0.135
2024-01-21T01:02:00.276Z,0.090
2024-01-21T01:03:00.357Z,0.090
2024-01-21T01:04:00.395Z,0.090
2024-01-21T01:05:00.353Z,0.090
2024-01-21T01:06:00.385Z,0.090
2024-01-21T01:07:00.281Z,0.045
2024-01-21T01:08:00.283Z,0.045
2024-01-21T01:09:00.250Z,0.045
2024-01-21T01:10:00.353Z,0.045
2024-01-21T01:11:00.344Z,0.045
2024-01-21T01:12:00.316Z,0.045
2024-01-21T01:13:00.279Z,0.045
2024-01-21T01:14:00.258Z,0.045
2024-01-21T01:15:00.317Z,0.045
2024-01-21T01:16:00.280Z,0.045
2024-01-21T01:17:00.341Z,0.045
2024-01-21T01:18:00.432Z,0.045
2024-01-21T01:19:00.369Z,0.045
2024-01-21T01:20:00.345Z,0.045
2024-01-21T01:21:02.001Z,0.045
2024-01-21T01:22:00.393Z,0.045
2024-01-21T01:23:00.261Z,0.045
2024-01-21T01:24:00.285Z,0.045
2024-01-21T01:25:00.301Z,0.045
2024-01-21T01:26:00.318Z,0.045
2024-01-21T01:27:00.327Z,0.045
2024-01-21T01:28:00.324Z,0.045
2024-01-21T01:29:00.258Z,0.045
2024-01-21T01:30:00.381Z,0.045
2024-01-21T01:31:00.380Z,0.045
2024-01-21T01:32:00.359Z,0.045
2024-01-21T01:33:00.408Z,0.045
2024-01-21T01:34:00.479Z,0.045
2024-01-21T01:35:00.403Z,0.045
2024-01-21T01:36:00.366Z,0.045
2024-01-21T01:37:00.393Z,0.045
2024-01-21T01:38:00.281Z,0.045
2024-01-21T01:39:00.259Z,0.045
2024-01-21T01:40:00.381Z,0.045
2024-01-21T01:41:00.471Z,0.045
2024-01-21T01:42:00.314Z,0.045
2024-01-21T01:43:00.365Z,0.045
2024-01-21T01:44:00.249Z,0.045
2024-01-21T01:45:00.285Z,0.045
2024-01-21T01:46:00.338Z,0.045
2024-01-21T01:47:00.418Z,0.045
2024-01-21T01:48:02.435Z,0.045
2024-01-21T01:49:00.323Z,0.045
2024-01-21T01:50:00.328Z,0.045
2024-01-21T01:51:00.362Z,0.045
2024-01-21T01:52:00.312Z,0.045
2024-01-21T01:53:00.296Z,0.045
2024-01-21T01:54:00.315Z,0.045
2024-01-21T01:55:00.378Z,0.045
2024-01-21T01:56:00.335Z,0.045
2024-01-21T01:57:00.321Z,0.045
2024-01-21T01:58:00.345Z,0.045
2024-01-21T01:59:00.331Z,0.045
2024-01-21T02:00:00.379Z,0.045
2024-01-21T02:01:00.378Z,0.045
2024-01-21T02:02:00.334Z,0.045
2024-01-21T02:03:00.341Z,0.045
2024-01-21T02:04:00.400Z,0.045
2024-01-21T02:05:00.340Z,0.045
2024-01-21T02:06:00.349Z,0.045
2024-01-21T02:07:00.262Z,0.045
2024-01-21T02:08:00.300Z,0.045
2024-01-21T02:09:00.352Z,0.045
2024-01-21T02:10:00.355Z,0.045
2024-01-21T02:11:00.304Z,0.045
2024-01-21T02:12:00.386Z,0.045
2024-01-21T02:13:00.301Z,0.045
2024-01-21T02:14:00.285Z,0.045
2024-01-21T02:15:00.269Z,0.045
2024-01-21T02:16:00.330Z,0.045
2024-01-21T02:17:00.264Z,0.045
2024-01-21T02:18:00.444Z,0.045
2024-01-21T02:19:00.535Z,0.045
2024-01-21T02:20:00.412Z,0.045
2024-01-21T02:22:00.293Z,0.045
2024-01-21T02:23:00.269Z,0.045
2024-01-21T02:24:00.349Z,0.045
2024-01-21T02:25:00.358Z,0.045
2024-01-21T02:26:00.293Z,0.180
2024-01-21T02:27:00.358Z,0.045
2024-01-21T02:28:00.288Z,0.045
2024-01-21T02:29:00.333Z,0.045
2024-01-21T02:30:00.357Z,0.045
2024-01-21T02:31:00.397Z,0.045
2024-01-21T02:32:00.266Z,0.045
2024-01-21T02:33:00.386Z,0.045
2024-01-21T02:34:00.412Z,0.045
2024-01-21T02:35:00.308Z,0.045
2024-01-21T02:36:00.338Z,0.045
2024-01-21T02:37:00.340Z,0.045
2024-01-21T02:38:00.298Z,0.045
2024-01-21T02:39:00.277Z,0.045
2024-01-21T02:40:00.288Z,0.045
2024-01-21T02:41:00.370Z,0.045
2024-01-21T02:42:00.288Z,0.045
2024-01-21T02:43:00.488Z,0.045
2024-01-21T02:44:00.357Z,0.045
2024-01-21T02:45:00.294Z,0.045
2024-01-21T02:46:00.516Z,0.045
2024-01-21T02:47:00.294Z,0.045
2024-01-21T02:48:00.336Z,0.045
2024-01-21T02:49:00.387Z,0.045
2024-01-21T02:50:00.344Z,0.045
2024-01-21T02:51:00.297Z,0.045
2024-01-21T02:52:00.640Z,0.045
2024-01-21T02:53:00.321Z,0.045
2024-01-21T02:54:00.273Z,0.045
2024-01-21T02:55:00.276Z,0.045
2024-01-21T02:56:00.289Z,0.045
2024-01-21T02:57:00.334Z,0.045
2024-01-21T02:58:00.342Z,0.045
2024-01-21T02:59:00.361Z,0.045
2024-01-21T03:00:00.349Z,0.045
2024-01-21T03:01:00.425Z,0.045
2024-01-21T03:02:00.299Z,0.045
2024-01-21T03:03:00.663Z,0.045
2024-01-21T03:04:00.356Z,0.045
2024-01-21T03:05:00.445Z,0.045
2024-01-21T03:06:00.281Z,0.045
2024-01-21T03:07:00.298Z,0.045
2024-01-21T03:08:00.289Z,0.045
2024-01-21T03:09:00.352Z,0.045
2024-01-21T03:10:00.417Z,0.045
2024-01-21T03:11:00.289Z,0.045
2024-01-21T03:12:00.273Z,0.045
2024-01-21T03:13:00.277Z,0.045
2024-01-21T03:14:00.297Z,0.045
2024-01-21T03:15:00.331Z,0.045
2024-01-21T03:16:00.404Z,0.045
2024-01-21T03:17:00.285Z,0.045
2024-01-21T03:18:00.397Z,0.045
2024-01-21T03:19:00.329Z,0.045
2024-01-21T03:20:00.532Z,0.045
2024-01-21T03:21:00.317Z,0.045
2024-01-21T03:22:00.370Z,0.045
2024-01-21T03:23:00.286Z,0.045
2024-01-21T03:24:00.324Z,0.045
2024-01-21T03:25:00.457Z,0.045
2024-01-21T03:26:00.278Z,0.045
2024-01-21T03:27:00.270Z,0.045
2024-01-21T03:28:00.454Z,0.045
2024-01-21T03:29:00.276Z,0.045
2024-01-21T03:30:00.430Z,0.045
2024-01-21T03:31:00.294Z,0.045
2024-01-21T03:32:00.292Z,0.045
2024-01-21T03:33:00.492Z,0.045
2024-01-21T03:34:00.560Z,0.045
2024-01-21T03:35:00.344Z,0.045
2024-01-21T03:36:00.348Z,0.090
2024-01-21T03:37:00.382Z,0.090
2024-01-21T03:38:00.284Z,0.090
2024-01-21T03:39:00.301Z,0.090
2024-01-21T03:40:00.387Z,0.090
2024-01-21T03:41:00.305Z,0.090
2024-01-21T03:42:00.368Z,0.090
2024-01-21T03:43:00.270Z,0.135
2024-01-21T03:44:00.271Z,0.135
2024-01-21T03:45:00.270Z,0.180
2024-01-21T03:46:00.373Z,0.180
2024-01-21T03:47:00.265Z,0.180
2024-01-21T03:48:00.423Z,0.180
2024-01-21T03:49:00.379Z,0.225
2024-01-21T03:50:00.344Z,0.270
2024-01-21T03:51:00.290Z,0.315
2024-01-21T03:52:00.290Z,0.405
2024-01-21T03:53:00.414Z,0.495
2024-01-21T03:54:00.280Z,0.540
2024-01-21T03:55:00.293Z,0.720
2024-01-21T03:56:00.286Z,0.900
2024-01-21T03:57:00.361Z,1.080
2024-01-21T03:58:00.572Z,1.305
2024-01-21T03:59:00.393Z,1.620
2024-01-21T04:00:00.335Z,1.935
2024-01-21T04:01:00.535Z,2.250
2024-01-21T04:02:00.373Z,2.655
2024-01-21T04:03:00.354Z,3.060
2024-01-21T04:04:00.523Z,3.510
2024-01-21T04:05:00.484Z,3.915
2024-01-21T04:06:00.353Z,4.545
2024-01-21T04:07:00.339Z,5.400
2024-01-21T04:08:00.370Z,6.570
2024-01-21T04:09:00.286Z,8.100
2024-01-21T04:10:00.294Z,9.810
2024-01-21T04:11:00.294Z,11.970
2024-01-21T04:12:01.024Z,14.400
2024-01-21T04:13:00.398Z,17.010
2024-01-21T04:14:00.342Z,19.530
2024-01-21T04:15:00.295Z,22.230
2024-01-21T04:16:00.299Z,24.660
2024-01-21T04:17:00.349Z,27.000
2024-01-21T04:18:00.379Z,30.600
2024-01-21T04:19:00.419Z,34.740
2024-01-21T04:20:00.356Z,38.160
2024-01-21T04:21:00.317Z,39.420
2024-01-21T04:22:01.879Z,38.700
2024-01-21T04:23:00.332Z,37.980
2024-01-21T04:24:00.313Z,39.960
2024-01-21T04:25:00.286Z,44.820
2024-01-21T04:26:01.047Z,51.120
2024-01-21T04:27:00.354Z,59.400
2024-01-21T04:28:00.321Z,68.400
2024-01-21T04:29:00.349Z,77.040
2024-01-21T04:30:00.485Z,83.880
2024-01-21T04:31:00.325Z,90.720
2024-01-21T04:32:00.278Z,97.920
2024-01-21T04:33:00.385Z,105.120
2024-01-21T04:34:00.465Z,113.040
2024-01-21T04:35:00.316Z,120.960
2024-01-21T04:36:00.367Z,127.440
2024-01-21T04:37:01.382Z,133.920
2024-01-21T04:38:00.284Z,140.400
2024-01-21T04:39:00.343Z,149.760
2024-01-21T04:40:00.445Z,161.280
2024-01-21T04:41:00.352Z,171.360
2024-01-21T04:42:00.458Z,182.160
2024-01-21T04:43:00.321Z,194.400
2024-01-21T04:44:00.283Z,203.040
2024-01-21T04:45:00.402Z,207.360
2024-01-21T04:46:00.308Z,216.000
2024-01-21T04:47:00.366Z,228.960
2024-01-21T04:48:00.355Z,244.800
2024-01-21T04:49:00.401Z,267.840
2024-01-21T04:50:00.266Z,300.960
2024-01-21T04:51:00.515Z,348.480
2024-01-21T04:52:00.297Z,403.200
2024-01-21T04:53:00.300Z,460.800
2024-01-21T04:54:00.280Z,558.720
2024-01-21T04:55:00.382Z,682.560
2024-01-21T04:56:00.291Z,601.920
2024-01-21T04:57:00.402Z,472.320
2024-01-21T04:58:00.349Z,423.360
2024-01-21T04:59:00.294Z,411.840
2024-01-21T05:00:00.489Z,414.720
2024-01-21T05:01:00.469Z,417.600
2024-01-21T05:02:00.293Z,420.480
2024-01-21T05:03:00.344Z,429.120
2024-01-21T05:04:00.393Z,437.760
2024-01-21T05:05:00.290Z,457.920
2024-01-21T05:06:00.270Z,478.080
2024-01-21T05:07:00.375Z,498.240
2024-01-21T05:08:00.294Z,524.160
2024-01-21T05:09:00.322Z,550.080
2024-01-21T05:10:00.380Z,578.880
2024-01-21T05:11:00.264Z,607.680
2024-01-21T05:12:00.331Z,636.480
2024-01-21T05:13:00.359Z,662.400
2024-01-21T05:14:00.290Z,688.320
2024-01-21T05:15:00.389Z,717.120
2024-01-21T05:16:00.278Z,743.040
2024-01-21T05:17:00.277Z,766.080
2024-01-21T05:18:00.521Z,783.360
2024-01-21T05:19:00.413Z,794.880
2024-01-21T05:20:00.350Z,806.400
2024-01-21T05:21:00.297Z,823.680
2024-01-21T05:22:00.306Z,840.960
2024-01-21T05:23:00.311Z,858.240
2024-01-21T05:24:00.300Z,875.520
2024-01-21T05:25:00.380Z,892.800
2024-01-21T05:26:00.336Z,910.080
2024-01-21T05:27:00.363Z,927.360
2024-01-21T05:28:00.349Z,944.640
2024-01-21T05:29:00.301Z,961.920
2024-01-21T05:30:00.309Z,990.720
2024-01-21T05:31:00.394Z,1088.640
2024-01-21T05:32:00.411Z,1117.440
2024-01-21T05:33:00.373Z,1134.720
2024-01-21T05:34:00.416Z,1140.480
2024-01-21T05:35:00.384Z,1163.520
2024-01-21T05:36:00.281Z,1198.080
2024-01-21T05:37:00.517Z,1198.080
2024-01-21T05:38:00.265Z,1203.840
2024-01-21T05:39:00.274Z,1203.840
2024-01-21T05:40:03.349Z,1209.600
2024-01-21T05:41:00.283Z,1267.200
2024-01-21T05:42:00.343Z,1393.920
2024-01-21T05:43:00.380Z,1388.160
2024-01-21T05:44:00.302Z,1336.320
2024-01-21T05:45:00.269Z,1336.320
2024-01-21T05:46:00.400Z,1393.920
2024-01-21T05:47:00.307Z,1486.080
2024-01-21T05:48:00.391Z,1532.160
2024-01-21T05:49:00.408Z,1405.440
2024-01-21T05:50:00.414Z,1393.920
2024-01-21T05:51:00.288Z,1411.200
2024-01-21T05:52:00.396Z,1520.640
2024-01-21T05:53:00.279Z,1658.880
2024-01-21T05:54:00.475Z,1843.200
2024-01-21T05:55:00.401Z,1981.440
2024-01-21T05:56:00.287Z,2016.000
2024-01-21T05:57:00.335Z,2073.600
2024-01-21T05:58:00.392Z,2039.040
2024-01-21T05:59:01.287Z,2016.000
2024-01-21T06:00:00.556Z,2142.720
2024-01-21T06:01:00.443Z,2315.520
2024-01-21T06:02:00.441Z,2419.200
2024-01-21T06:03:00.391Z,2972.160
2024-01-21T06:04:00.293Z,3248.640
2024-01-21T06:05:00.307Z,3663.360
2024-01-21T06:06:00.267Z,3594.240
2024-01-21T06:07:00.434Z,3110.400
2024-01-21T06:08:00.282Z,2891.520
2024-01-21T06:09:00.345Z,2764.800
2024-01-21T06:10:00.290Z,2557.440
2024-01-21T06:11:00.326Z,2246.400
2024-01-21T06:12:00.315Z,2234.880
2024-01-21T06:13:00.331Z,2177.280
2024-01-21T06:14:00.373Z,2188.800
2024-01-21T06:15:00.316Z,2223.360
2024-01-21T06:16:00.343Z,2246.400
2024-01-21T06:17:00.309Z,2453.760
2024-01-21T06:18:00.532Z,2787.840
2024-01-21T06:19:00.410Z,2845.440
2024-01-21T06:20:00.363Z,2937.600
2024-01-21T06:21:00.274Z,2949.120
2024-01-21T06:22:00.280Z,3409.920
2024-01-21T06:23:00.357Z,3916.800
2024-01-21T06:24:00.330Z,4078.080
2024-01-21T06:25:00.290Z,4354.560
2024-01-21T06:26:00.285Z,4354.560
2024-01-21T06:27:00.272Z,4078.080
2024-01-21T06:28:00.392Z,3386.880
2024-01-21T06:29:00.332Z,3432.960
2024-01-21T06:30:00.367Z,3640.320
2024-01-21T06:31:00.287Z,3617.280
2024-01-21T06:32:00.293Z,3709.440
2024-01-21T06:33:03.274Z,3594.240
2024-01-21T06:34:00.391Z,3755.520
2024-01-21T06:35:00.377Z,3686.400
2024-01-21T06:36:00.279Z,3432.960
2024-01-21T06:37:00.296Z,3041.280
2024-01-21T06:38:00.279Z,2684.160
2024-01-21T06:39:00.296Z,2396.160
2024-01-21T06:40:03.189Z,2257.920
2024-01-21T06:41:00.345Z,2269.440
2024-01-21T06:42:00.261Z,2327.040
2024-01-21T06:43:00.359Z,2419.200
2024-01-21T06:44:00.274Z,2534.400
2024-01-21T06:45:00.342Z,2730.240
2024-01-21T06:46:00.318Z,2880.000
2024-01-21T06:47:00.297Z,2937.600
2024-01-21T06:48:00.430Z,2914.560
2024-01-21T06:49:00.425Z,2833.920
2024-01-21T06:50:00.313Z,2730.240
2024-01-21T06:51:00.354Z,2695.680
2024-01-21T06:52:00.310Z,2695.680
2024-01-21T06:53:00.287Z,2718.720
2024-01-21T06:54:00.272Z,2776.320
2024-01-21T06:55:00.287Z,2891.520
2024-01-21T06:56:00.299Z,3018.240
2024-01-21T06:57:00.394Z,3156.480
2024-01-21T06:58:00.531Z,3317.760
2024-01-21T06:59:00.312Z,3456.000
2024-01-21T07:00:00.526Z,3548.160
2024-01-21T07:01:00.464Z,3456.000
2024-01-21T07:02:00.596Z,3363.840
2024-01-21T07:03:00.302Z,3479.040
2024-01-21T07:04:00.348Z,3640.320
2024-01-21T07:05:00.298Z,3709.440
2024-01-21T07:06:00.291Z,3617.280
2024-01-21T07:07:00.358Z,3502.080
2024-01-21T07:08:00.351Z,3179.520
2024-01-21T07:09:00.286Z,2972.160
2024-01-21T07:10:00.282Z,2730.240
2024-01-21T07:11:00.293Z,2465.280
2024-01-21T07:12:00.286Z,2177.280
2024-01-21T07:13:00.318Z,1946.880
2024-01-21T07:14:00.336Z,1785.600
2024-01-21T07:15:00.355Z,1693.440
2024-01-21T07:16:00.461Z,1612.800
2024-01-21T07:17:00.282Z,1555.200
2024-01-21T07:18:00.303Z,1532.160
2024-01-21T07:19:00.363Z,1555.200
2024-01-21T07:20:00.516Z,1601.280
2024-01-21T07:21:00.371Z,1670.400
2024-01-21T07:22:00.373Z,1774.080
2024-01-21T07:23:00.281Z,1900.800
2024-01-21T07:24:00.356Z,1992.960
2024-01-21T07:25:03.265Z,2016.000
2024-01-21T07:26:00.304Z,2016.000
2024-01-21T07:27:00.314Z,2039.040
2024-01-21T07:28:00.389Z,2073.600
2024-01-21T07:29:00.309Z,2108.160
2024-01-21T07:30:00.464Z,2131.200
2024-01-21T07:31:00.461Z,2131.200
2024-01-21T07:32:00.368Z,2085.120
2024-01-21T07:34:00.512Z,2004.480
2024-01-21T07:35:00.410Z,2004.480
2024-01-21T07:36:00.333Z,2027.520
2024-01-21T07:37:00.319Z,2062.080
2024-01-21T07:38:00.279Z,2108.160
2024-01-21T07:39:00.286Z,2154.240
2024-01-21T07:40:00.421Z,2188.800
2024-01-21T07:41:00.346Z,2211.840
2024-01-21T07:42:00.313Z,2211.840
2024-01-21T07:43:00.368Z,2177.280
2024-01-21T07:44:00.338Z,2131.200
2024-01-21T07:45:00.350Z,2096.640
2024-01-21T07:46:00.419Z,2050.560
2024-01-21T07:47:00.290Z,2004.480
2024-01-21T07:48:00.431Z,1981.440
2024-01-21T07:49:00.453Z,2004.480
2024-01-21T07:50:00.371Z,2062.080
2024-01-21T07:51:00.289Z,2154.240
2024-01-21T07:52:00.279Z,2269.440
2024-01-21T07:53:00.303Z,2396.160
2024-01-21T07:54:00.425Z,2534.400
2024-01-21T07:55:00.321Z,2707.200
2024-01-21T07:56:00.466Z,2822.400
2024-01-21T07:57:00.320Z,2926.080
2024-01-21T07:58:00.544Z,3041.280
2024-01-21T07:59:01.774Z,3110.400
2024-01-21T08:00:02.179Z,3110.400
2024-01-21T08:01:04.184Z,3018.240
2024-01-21T08:02:00.473Z,2880.000
2024-01-21T08:03:02.662Z,2730.240
2024-01-21T08:04:04.183Z,2626.560
2024-01-21T08:05:00.425Z,2511.360
2024-01-21T08:06:00.596Z,2407.680
2024-01-21T08:07:00.407Z,2304.000
2024-01-21T08:08:00.494Z,2223.360
2024-01-21T08:09:00.347Z,2119.680
2024-01-21T08:10:00.491Z,2039.040
2024-01-21T08:11:00.786Z,1969.920
2024-01-21T08:12:00.351Z,1935.360
2024-01-21T08:13:00.482Z,1900.800
2024-01-21T08:14:00.582Z,1889.280
2024-01-21T08:15:00.449Z,1866.240
2024-01-21T08:16:00.538Z,1866.240
2024-01-21T08:17:00.631Z,1877.760
2024-01-21T08:18:01.482Z,1900.800
2024-01-21T08:19:00.587Z,1923.840
2024-01-21T08:20:00.544Z,1958.400
2024-01-21T08:21:00.360Z,2004.480
2024-01-21T08:22:00.486Z,2050.560
2024-01-21T08:23:00.419Z,2119.680
2024-01-21T08:24:00.517Z,2177.280
2024-01-21T08:25:02.110Z,2246.400
2024-01-21T08:26:00.634Z,2315.520
2024-01-21T08:27:01.402Z,2407.680
2024-01-21T08:28:00.434Z,2545.920
2024-01-21T08:29:00.569Z,2718.720
2024-01-21T08:30:00.473Z,2937.600
2024-01-21T08:31:00.364Z,3110.400
2024-01-21T08:32:00.415Z,3271.680
2024-01-21T08:33:00.530Z,3317.760
2024-01-21T08:34:00.623Z,3271.680
2024-01-21T08:35:00.815Z,3271.680
2024-01-21T08:36:00.516Z,3248.640
2024-01-21T08:37:00.570Z,3202.560
2024-01-21T08:38:00.344Z,3248.640
2024-01-21T08:39:00.537Z,3386.880
2024-01-21T08:40:00.340Z,3594.240
2024-01-21T08:41:02.550Z,3732.480
2024-01-21T08:42:01.656Z,4055.040
2024-01-21T08:43:00.511Z,3778.560
2024-01-21T08:44:00.336Z,3686.400
2024-01-21T08:45:00.450Z,4101.120
2024-01-21T08:46:00.872Z,4469.760
2024-01-21T08:47:01.130Z,4538.880
2024-01-21T08:48:00.543Z,4055.040
2024-01-21T08:49:00.468Z,3870.720
2024-01-21T08:50:00.799Z,3847.680
2024-01-21T08:51:00.714Z,3778.560
2024-01-21T08:52:00.652Z,3686.400
2024-01-21T08:53:00.587Z,3525.120
2024-01-21T08:54:01.233Z,3363.840
2024-01-21T08:55:01.662Z,3271.680
2024-01-21T08:56:00.486Z,3179.520
2024-01-21T08:57:02.408Z,3202.560
2024-01-21T08:58:00.443Z,3179.520
2024-01-21T08:59:00.644Z,3064.320
2024-01-21T09:00:00.657Z,2995.200
2024-01-21T09:01:00.946Z,2891.520
2024-01-21T09:02:01.688Z,2764.800
2024-01-21T09:03:00.405Z,2626.560
2024-01-21T09:04:00.802Z,2476.800
2024-01-21T09:05:00.744Z,2373.120
2024-01-21T09:06:01.717Z,2292.480
2024-01-21T09:07:00.462Z,2257.920
2024-01-21T09:08:00.458Z,2234.880
2024-01-21T09:09:00.446Z,2234.880
2024-01-21T09:10:01.381Z,2234.880
2024-01-21T09:11:00.380Z,2246.400
2024-01-21T09:12:00.669Z,2257.920
2024-01-21T09:13:00.658Z,2246.400
2024-01-21T09:14:00.387Z,2223.360
2024-01-21T09:15:00.385Z,2165.760
2024-01-21T09:16:00.459Z,2096.640
2024-01-21T09:17:00.432Z,2027.520
2024-01-21T09:18:01.076Z,1946.880
2024-01-21T09:19:00.438Z,1866.240
2024-01-21T09:20:00.453Z,1797.120
2024-01-21T09:21:00.512Z,1739.520
2024-01-21T09:22:00.619Z,1681.920
2024-01-21T09:23:00.476Z,1635.840
2024-01-21T09:24:00.510Z,1589.760
2024-01-21T09:25:00.561Z,1555.200
2024-01-21T09:26:00.408Z,1509.120
2024-01-21T09:27:00.461Z,1474.560
2024-01-21T09:28:00.533Z,1434.240
2024-01-21T09:29:00.380Z,1405.440
2024-01-21T09:30:00.448Z,1382.400
2024-01-21T09:31:00.404Z,1353.600
2024-01-21T09:32:00.449Z,1324.800
2024-01-21T09:33:00.507Z,1296.000
2024-01-21T09:34:00.800Z,1244.160
2024-01-21T09:35:00.717Z,1203.840
2024-01-21T09:36:00.428Z,1186.560
2024-01-21T09:37:00.562Z,1209.600
2024-01-21T09:38:00.403Z,1249.920
2024-01-21T09:39:00.442Z,1301.760
2024-01-21T09:40:00.758Z,1330.560
2024-01-21T09:41:00.505Z,1342.080
2024-01-21T09:42:00.461Z,1342.080
2024-01-21T09:43:00.601Z,1342.080
2024-01-21T09:44:00.382Z,1324.800
2024-01-21T09:45:00.316Z,1313.280
2024-01-21T09:46:01.020Z,1307.520
2024-01-21T09:47:00.482Z,1290.240
2024-01-21T09:48:00.608Z,1261.440
2024-01-21T09:49:00.440Z,1226.880
2024-01-21T09:50:00.351Z,1203.840
2024-01-21T09:51:00.805Z,1169.280
2024-01-21T09:52:00.482Z,1134.720
2024-01-21T09:53:00.501Z,1100.160
2024-01-21T09:54:00.386Z,1071.360
2024-01-21T09:55:01.551Z,1054.080
2024-01-21T09:56:00.383Z,1036.800
2024-01-21T09:57:00.439Z,1036.800
2024-01-21T09:58:00.511Z,1042.560
2024-01-21T09:59:00.501Z,1042.560
2024-01-21T10:00:00.567Z,1048.320
2024-01-21T10:01:00.635Z,1048.320
2024-01-21T10:02:00.425Z,1036.800
2024-01-21T10:03:00.470Z,1036.800
2024-01-21T10:04:00.449Z,1042.560
2024-01-21T10:05:00.711Z,1048.320
2024-01-21T10:06:00.385Z,1065.600
2024-01-21T10:07:00.479Z,1088.640
2024-01-21T10:08:00.489Z,1117.440
2024-01-21T10:09:00.498Z,1152.000
2024-01-21T10:10:00.582Z,1186.560
2024-01-21T10:11:01.905Z,1226.880
2024-01-21T10:12:00.395Z,1249.920
2024-01-21T10:13:00.489Z,1267.200
2024-01-21T10:14:00.519Z,1272.960
2024-01-21T10:15:00.676Z,1278.720
2024-01-21T10:16:00.384Z,1284.480
2024-01-21T10:17:01.054Z,1284.480
2024-01-21T10:18:00.646Z,1272.960
2024-01-21T10:19:02.330Z,1238.400
2024-01-21T10:20:01.902Z,1203.840
2024-01-21T10:21:01.076Z,1175.040
2024-01-21T10:22:00.765Z,1152.000
2024-01-21T10:23:00.878Z,1146.240
2024-01-21T10:24:00.579Z,1157.760
2024-01-21T10:25:03.066Z,1169.280
2024-01-21T10:26:00.533Z,1169.280
2024-01-21T10:27:00.620Z,1175.040
2024-01-21T10:28:00.544Z,1186.560
2024-01-21T10:29:00.554Z,1203.840
2024-01-21T10:30:00.475Z,1209.600
2024-01-21T10:31:00.549Z,1203.840
2024-01-21T10:32:01.737Z,1192.320
2024-01-21T10:33:01.423Z,1215.360
2024-01-21T10:34:00.636Z,1244.160
2024-01-21T10:35:00.910Z,1290.240
2024-01-21T10:36:00.511Z,1324.800
2024-01-21T10:37:00.604Z,1359.360
2024-01-21T10:38:00.983Z,1370.880
2024-01-21T10:39:00.521Z,1382.400
2024-01-21T10:40:00.584Z,1376.640
2024-01-21T10:41:00.519Z,1353.600
2024-01-21T10:42:00.399Z,1313.280
2024-01-21T10:43:00.584Z,1249.920
2024-01-21T10:44:00.475Z,1180.800
2024-01-21T10:45:00.901Z,1123.200
2024-01-21T10:46:00.577Z,1094.400
2024-01-21T10:47:02.038Z,1077.120
2024-01-21T10:48:00.689Z,1059.840
2024-01-21T10:49:00.723Z,1036.800
2024-01-21T10:50:00.819Z,1008.000
2024-01-21T10:51:02.759Z,990.720
2024-01-21T10:52:00.565Z,990.720
2024-01-21T10:53:00.514Z,1002.240
2024-01-21T10:54:00.520Z,1031.040
2024-01-21T10:55:02.824Z,1048.320
2024-01-21T10:56:00.531Z,1065.600
2024-01-21T10:57:00.618Z,1082.880
2024-01-21T10:58:00.575Z,1077.120
2024-01-21T10:59:00.579Z,1065.600
2024-01-21T11:00:00.409Z,1048.320
2024-01-21T11:01:00.511Z,1025.280
2024-01-21T11:02:00.382Z,1013.760
2024-01-21T11:03:00.387Z,996.480
2024-01-21T11:04:00.434Z,984.960
2024-01-21T11:05:00.409Z,967.680
2024-01-21T11:06:00.535Z,950.400
2024-01-21T11:07:00.569Z,933.120
2024-01-21T11:08:00.357Z,921.600
2024-01-21T11:09:00.340Z,915.840
2024-01-21T11:10:00.506Z,915.840
2024-01-21T11:11:00.446Z,915.840
2024-01-21T11:12:00.394Z,921.600
2024-01-21T11:13:00.600Z,927.360
2024-01-21T11:14:00.414Z,933.120
2024-01-21T11:15:00.512Z,938.880
2024-01-21T11:16:00.558Z,944.640
2024-01-21T11:17:03.443Z,956.160
2024-01-21T11:18:00.464Z,973.440
2024-01-21T11:19:02.721Z,990.720
2024-01-21T11:20:00.462Z,1013.760
2024-01-21T11:21:00.411Z,1042.560
2024-01-21T11:22:00.538Z,1071.360
2024-01-21T11:23:01.098Z,1117.440
2024-01-21T11:24:00.347Z,1152.000
2024-01-21T11:25:00.541Z,1186.560
2024-01-21T11:26:00.442Z,1226.880
2024-01-21T11:27:00.449Z,1255.680
2024-01-21T11:28:00.496Z,1278.720
2024-01-21T11:29:00.361Z,1290.240
2024-01-21T11:30:00.582Z,1284.480
2024-01-21T11:31:00.410Z,1284.480
2024-01-21T11:32:00.460Z,1284.480
2024-01-21T11:33:00.526Z,1278.720
2024-01-21T11:34:00.676Z,1284.480
2024-01-21T11:35:00.453Z,1307.520
2024-01-21T11:36:00.405Z,1330.560
2024-01-21T11:37:00.467Z,1370.880
2024-01-21T11:38:00.448Z,1411.200
2024-01-21T11:39:00.457Z,1486.080
2024-01-21T11:40:00.616Z,1555.200
2024-01-21T11:41:00.426Z,1601.280
2024-01-21T11:42:00.369Z,1658.880
2024-01-21T11:43:00.500Z,1716.480
2024-01-21T11:44:00.372Z,1751.040
2024-01-21T11:45:00.447Z,1774.080
2024-01-21T11:46:00.431Z,1774.080
2024-01-21T11:47:00.363Z,1774.080
2024-01-21T11:48:00.489Z,1774.080
2024-01-21T11:49:00.407Z,1762.560
2024-01-21T11:50:00.523Z,1739.520
2024-01-21T11:51:00.368Z,1704.960
2024-01-21T11:52:00.453Z,1693.440
2024-01-21T11:53:00.369Z,1670.400
2024-01-21T11:54:00.362Z,1670.400
2024-01-21T11:55:00.951Z,1716.480
2024-01-21T11:56:00.517Z,1774.080
2024-01-21T11:57:00.420Z,1877.760
2024-01-21T11:58:00.445Z,2004.480
2024-01-21T11:59:00.351Z,2050.560
2024-01-21T12:00:00.354Z,2200.320
2024-01-21T12:01:00.508Z,2442.240
2024-01-21T12:02:01.057Z,2718.720
2024-01-21T12:03:00.420Z,2949.120
2024-01-21T12:04:00.466Z,2949.120
2024-01-21T12:05:00.504Z,2672.640
2024-01-21T12:06:00.441Z,2465.280
2024-01-21T12:07:00.524Z,2384.640
2024-01-21T12:08:00.346Z,2280.960
2024-01-21T12:09:01.903Z,2315.520
2024-01-21T12:10:00.623Z,2499.840
2024-01-21T12:11:00.395Z,3133.440
2024-01-21T12:12:00.622Z,3064.320